createdAt,value
2022-10-28T00:01:36.782Z,91.55
2022-10-28T00:04:03.137Z,87.63
2022-10-28T00:06:29.967Z,88.13
2022-10-28T00:08:56.285Z,90.50
2022-10-28T00:11:22.544Z,92.72
2022-10-28T00:13:48.808Z,98.32
2022-10-28T00:16:15.068Z,94.03
2022-10-28T00:18:41.323Z,92.38
2022-10-28T00:21:07.624Z,92.75
2022-10-28T00:23:33.883Z,90.03
2022-10-28T00:26:00.140Z,97.72
2022-10-28T00:28:26.400Z,87.63
2022-10-28T00:30:52.684Z,88.47
2022-10-28T00:33:18.943Z,79.88
2022-10-28T00:35:45.208Z,86.78
2022-10-28T00:38:11.453Z,76.53
2022-10-28T00:40:37.754Z,75.75
2022-10-28T00:43:04.026Z,73.43
2022-10-28T00:45:30.274Z,81.20
2022-10-28T00:47:56.858Z,75.18
2022-10-28T00:50:23.293Z,67.97
2022-10-28T00:52:49.705Z,71.53
2022-10-28T00:55:15.962Z,73.38
2022-10-28T00:57:42.210Z,72.22
2022-10-28T01:00:08.471Z,76.97
2022-10-28T01:02:34.769Z,73.53
2022-10-28T01:05:01.122Z,70.82
2022-10-28T01:07:27.367Z,70.32
2022-10-28T01:09:53.673Z,65.50
2022-10-28T01:12:19.923Z,72.35
2022-10-28T01:14:46.183Z,76.82
2022-10-28T01:17:12.442Z,86.10
2022-10-28T01:19:38.690Z,84.28
2022-10-28T01:22:04.944Z,82.65
2022-10-28T01:24:31.198Z,79.55
2022-10-28T01:26:57.544Z,76.93
2022-10-28T01:29:23.804Z,76.57
2022-10-28T01:31:50.105Z,71.88
2022-10-28T01:34:16.385Z,82.15
2022-10-28T01:36:46.034Z,85.95
2022-10-28T01:39:12.292Z,95.93
2022-10-28T01:41:38.539Z,102.38
2022-10-28T01:44:04.801Z,93.15
2022-10-28T01:46:31.085Z,93.47
2022-10-28T01:48:57.330Z,99.55
2022-10-28T01:51:23.659Z,104.13
2022-10-28T01:53:49.961Z,101.20
2022-10-28T01:56:16.223Z,98.85
2022-10-28T01:58:42.508Z,90.68
2022-10-28T02:01:08.893Z,94.03
2022-10-28T02:03:35.268Z,89.65
2022-10-28T02:06:01.556Z,80.75
2022-10-28T02:08:27.836Z,84.22
2022-10-28T02:10:54.087Z,90.63
2022-10-28T02:13:20.363Z,86.35
2022-10-28T02:15:46.606Z,93.82
2022-10-28T02:18:12.931Z,90.75
2022-10-28T02:20:39.176Z,92.95
2022-10-28T02:23:05.465Z,98.40
2022-10-28T02:25:31.714Z,94.57
2022-10-28T02:27:58.014Z,98.13
2022-10-28T02:30:24.320Z,99.43
2022-10-28T02:32:50.699Z,87.68
2022-10-28T02:35:17.110Z,148.10
2022-10-28T02:37:43.743Z,140.32
2022-10-28T02:40:09.992Z,129.88
2022-10-28T02:42:36.290Z,119.88
2022-10-28T02:45:02.802Z,127.35
2022-10-28T02:47:29.064Z,104.55
2022-10-28T02:49:55.399Z,123.55
2022-10-28T02:52:21.660Z,132.25
2022-10-28T02:54:47.938Z,146.32
2022-10-28T02:57:14.182Z,117.53
2022-10-28T02:59:40.451Z,112.43
2022-10-28T03:02:06.839Z,112.22
2022-10-28T03:04:33.188Z,100.57
2022-10-28T03:06:59.451Z,99.93
2022-10-28T03:09:25.706Z,111.13
2022-10-28T03:11:52.106Z,102.50
2022-10-28T03:14:18.346Z,106.00
2022-10-28T03:16:44.668Z,96.68
2022-10-28T03:19:10.937Z,97.25
2022-10-28T03:21:37.215Z,100.78
2022-10-28T03:24:03.496Z,140.75
2022-10-28T03:26:29.747Z,128.38
2022-10-28T03:28:56.007Z,129.43
2022-10-28T03:31:22.311Z,126.88
2022-10-28T03:33:48.648Z,107.57
2022-10-28T03:36:14.907Z,95.70
2022-10-28T03:38:41.199Z,101.63
2022-10-28T03:41:07.464Z,97.28
2022-10-28T03:43:33.705Z,92.43
2022-10-28T03:45:59.959Z,95.18
2022-10-28T03:48:26.245Z,86.43
2022-10-28T03:50:52.491Z,81.90
2022-10-28T03:53:18.745Z,90.75
2022-10-28T03:55:44.998Z,96.35
2022-10-28T03:58:11.249Z,98.90
2022-10-28T04:00:37.515Z,100.50
2022-10-28T04:03:03.773Z,101.75
2022-10-28T04:05:30.046Z,101.70
2022-10-28T04:07:56.331Z,97.88
2022-10-28T04:10:22.593Z,85.30
2022-10-28T04:12:48.844Z,89.85
2022-10-28T04:15:15.146Z,91.53
2022-10-28T04:17:41.398Z,87.95
2022-10-28T04:20:07.643Z,85.55
2022-10-28T04:22:34.070Z,91.72
2022-10-28T04:25:00.346Z,85.40
2022-10-28T04:27:26.676Z,84.07
2022-10-28T04:29:52.926Z,85.82
2022-10-28T04:32:19.177Z,79.30
2022-10-28T04:34:45.431Z,84.70
2022-10-28T04:37:11.693Z,81.53
2022-10-28T04:39:37.952Z,77.45
2022-10-28T04:42:04.203Z,74.88
2022-10-28T04:44:30.486Z,80.85
2022-10-28T04:46:56.934Z,87.75
2022-10-28T04:49:23.174Z,85.78
2022-10-28T04:51:49.428Z,79.72
2022-10-28T04:54:15.674Z,78.15
2022-10-28T04:56:41.926Z,79.05
2022-10-28T04:59:08.193Z,78.85
2022-10-28T05:01:34.689Z,73.53
2022-10-28T05:04:01.033Z,72.80
2022-10-28T05:06:27.294Z,74.72
2022-10-28T05:08:53.566Z,70.63
2022-10-28T05:11:19.877Z,75.80
2022-10-28T05:13:46.184Z,72.32
2022-10-28T05:16:12.447Z,76.40
2022-10-28T05:18:38.724Z,73.70
2022-10-28T05:21:05.074Z,73.10
2022-10-28T05:23:31.420Z,81.55
2022-10-28T05:25:57.665Z,78.97
2022-10-28T05:28:24.203Z,74.13
2022-10-28T05:30:50.475Z,75.80
2022-10-28T05:33:16.724Z,72.53
2022-10-28T05:35:43.102Z,77.45
2022-10-28T05:38:09.429Z,77.97
2022-10-28T05:40:35.743Z,75.43
2022-10-28T05:43:02.009Z,70.55
2022-10-28T05:47:59.498Z,67.03
2022-10-28T05:50:25.768Z,74.32
2022-10-28T05:52:52.038Z,82.15
2022-10-28T05:55:21.375Z,81.85
2022-10-28T05:57:47.665Z,79.95
2022-10-28T06:00:14.210Z,79.40
2022-10-28T06:02:40.464Z,77.78
2022-10-28T06:05:06.876Z,80.05
2022-10-28T06:07:34.739Z,72.28
2022-10-28T06:10:00.983Z,79.55
2022-10-28T06:12:25.730Z,74.88
2022-10-28T06:14:52.024Z,75.05
2022-10-28T06:17:18.278Z,74.72
2022-10-28T06:19:44.531Z,75.15
2022-10-28T06:22:14.333Z,75.07
2022-10-28T06:24:40.585Z,74.47
2022-10-28T06:29:57.126Z,85.88
2022-10-28T06:32:23.422Z,83.10
2022-10-28T06:34:49.712Z,75.20
2022-10-28T06:37:15.981Z,72.15
2022-10-28T06:39:44.162Z,71.88
2022-10-28T06:42:10.560Z,70.43
2022-10-28T06:44:36.835Z,66.40
2022-10-28T06:47:04.781Z,68.22
2022-10-28T06:49:31.038Z,69.88
2022-10-28T06:51:57.309Z,72.03
2022-10-28T06:54:23.578Z,76.22
2022-10-28T06:56:49.902Z,81.32
2022-10-28T06:59:16.299Z,90.75
2022-10-28T07:01:42.620Z,84.63
2022-10-28T07:04:08.932Z,87.88
2022-10-28T07:06:35.198Z,103.47
2022-10-28T07:09:01.512Z,103.13
2022-10-28T07:11:27.893Z,98.05
2022-10-28T07:13:54.227Z,115.03
2022-10-28T07:16:20.559Z,98.53
2022-10-28T07:18:46.807Z,82.70
2022-10-28T07:21:14.413Z,92.85
2022-10-28T07:23:40.662Z,90.38
2022-10-28T07:26:07.004Z,88.53
2022-10-28T07:28:33.263Z,77.10
2022-10-28T07:30:59.690Z,65.75
2022-10-28T07:33:26.002Z,67.85
2022-10-28T07:35:52.272Z,999.90
2022-10-28T07:38:18.569Z,999.90
2022-10-28T07:40:44.825Z,999.90
2022-10-28T07:43:11.144Z,999.90
2022-10-28T07:45:37.417Z,999.90
2022-10-28T07:48:03.714Z,999.90
2022-10-28T07:50:30.053Z,999.90
2022-10-28T07:52:56.713Z,999.90
2022-10-28T07:55:23.217Z,999.90
2022-10-28T07:57:49.474Z,999.90
2022-10-28T08:00:15.962Z,999.90
2022-10-28T08:02:42.420Z,999.90
2022-10-28T08:05:08.740Z,999.90
2022-10-28T08:07:38.439Z,999.90
2022-10-28T08:10:05.306Z,999.90
2022-10-28T08:12:31.568Z,999.90
2022-10-28T08:14:57.846Z,999.90
2022-10-28T08:17:26.467Z,999.90
2022-10-28T08:19:52.723Z,999.90
2022-10-28T08:22:18.993Z,999.90
2022-10-28T08:24:45.259Z,999.90
2022-10-28T08:27:11.548Z,999.90
2022-10-28T08:29:37.850Z,999.90
2022-10-28T08:32:04.112Z,999.90
2022-10-28T08:34:31.243Z,999.90
2022-10-28T08:36:57.685Z,999.90
2022-10-28T08:39:24.121Z,999.90
2022-10-28T08:41:51.817Z,999.90
2022-10-28T08:44:18.101Z,999.90
2022-10-28T08:46:44.387Z,999.90
2022-10-28T08:49:10.798Z,999.90
2022-10-28T08:51:37.053Z,999.90
2022-10-28T08:54:03.324Z,999.90
2022-10-28T08:56:29.596Z,999.90
2022-10-28T08:58:58.952Z,999.90
2022-10-28T09:01:25.316Z,999.90
2022-10-28T09:03:51.698Z,999.90
2022-10-28T09:06:18.032Z,999.90
2022-10-28T09:08:44.294Z,999.90
2022-10-28T09:11:10.579Z,999.90
2022-10-28T09:13:36.899Z,999.90
2022-10-28T09:16:03.160Z,999.90
2022-10-28T09:18:29.434Z,999.90
2022-10-28T09:20:55.714Z,999.90
2022-10-28T09:23:22.375Z,999.90
2022-10-28T09:25:48.801Z,999.90
2022-10-28T09:28:15.184Z,999.90
2022-10-28T09:30:41.458Z,999.90
2022-10-28T09:33:07.737Z,999.90
2022-10-28T09:35:34.156Z,999.90
2022-10-28T09:38:00.452Z,999.90
2022-10-28T09:40:26.748Z,999.90
2022-10-28T09:42:53.010Z,999.90
2022-10-28T09:45:19.268Z,999.90
2022-10-28T09:47:45.529Z,999.90
2022-10-28T09:50:11.929Z,999.90
2022-10-28T09:52:38.200Z,999.90
2022-10-28T09:55:04.464Z,999.90
2022-10-28T09:57:30.744Z,999.90
2022-10-28T09:59:57.036Z,999.90
2022-10-28T10:02:23.378Z,999.90
2022-10-28T10:04:50.806Z,999.90
2022-10-28T10:07:17.072Z,999.90
2022-10-28T10:09:43.373Z,999.90
2022-10-28T10:12:09.632Z,999.90
2022-10-28T10:14:35.908Z,999.90
2022-10-28T10:17:02.191Z,999.90
2022-10-28T10:19:28.499Z,999.90
2022-10-28T10:21:55.297Z,999.90
2022-10-28T10:24:21.586Z,999.90
2022-10-28T10:26:47.836Z,999.90
2022-10-28T10:29:14.115Z,999.90
2022-10-28T10:31:40.386Z,999.90
2022-10-28T10:34:06.653Z,999.90
2022-10-28T10:36:33.627Z,999.90
2022-10-28T10:38:59.890Z,999.90
2022-10-28T10:41:26.165Z,999.90
2022-10-28T10:43:52.438Z,999.90
2022-10-28T10:46:18.711Z,999.90
2022-10-28T10:48:45.130Z,999.90
2022-10-28T10:51:11.412Z,999.90
2022-10-28T10:53:37.715Z,999.90
2022-10-28T10:56:04.001Z,999.90
2022-10-28T10:58:30.273Z,999.90
2022-10-28T11:00:56.533Z,999.90
2022-10-28T11:03:22.839Z,999.90
2022-10-28T11:05:55.089Z,999.90
2022-10-28T11:08:33.018Z,999.90
2022-10-28T11:10:59.270Z,999.90
2022-10-28T11:13:25.535Z,999.90
2022-10-28T11:15:51.798Z,999.90
2022-10-28T11:18:20.612Z,999.90
2022-10-28T11:20:46.999Z,999.90
2022-10-28T11:23:13.259Z,999.90
2022-10-28T11:25:39.566Z,999.90
2022-10-28T11:28:05.825Z,999.90
2022-10-28T11:30:32.085Z,999.90
2022-10-28T11:33:14.785Z,999.90
2022-10-28T11:35:44.803Z,999.90
2022-10-28T11:38:11.116Z,999.90
2022-10-28T11:40:37.380Z,999.90
2022-10-28T11:43:03.648Z,999.90
2022-10-28T11:45:29.923Z,999.90
2022-10-28T11:47:56.744Z,999.90
2022-10-28T11:50:23.080Z,999.90
2022-10-28T11:52:49.367Z,999.90
2022-10-28T11:55:15.742Z,999.90
2022-10-28T11:57:42.292Z,999.90
2022-10-28T12:00:08.583Z,999.90
2022-10-28T12:02:35.219Z,999.90
2022-10-28T12:05:01.522Z,999.90
2022-10-28T12:07:27.802Z,999.90
2022-10-28T12:09:54.098Z,999.90
2022-10-28T12:12:20.554Z,999.90
2022-10-28T12:14:46.913Z,999.90
2022-10-28T12:17:17.737Z,999.90
2022-10-28T12:19:44.065Z,999.90
2022-10-28T12:22:10.362Z,999.90
2022-10-28T12:24:36.778Z,999.90
2022-10-28T12:27:03.306Z,999.90
2022-10-28T12:29:30.008Z,999.90
2022-10-28T12:31:56.342Z,999.90
2022-10-28T12:34:22.811Z,999.90
2022-10-28T12:36:49.118Z,999.90
2022-10-28T12:39:15.892Z,999.90
2022-10-28T12:44:13.318Z,999.90
2022-10-28T12:46:39.650Z,999.90
2022-10-28T12:49:05.972Z,999.90
2022-10-28T12:51:32.332Z,999.90
2022-10-28T12:53:58.627Z,999.90
2022-10-28T12:56:24.920Z,999.90
2022-10-28T12:58:51.279Z,999.90
2022-10-28T13:01:17.700Z,999.90
2022-10-28T13:03:44.078Z,999.90
2022-10-28T13:06:10.349Z,999.90
2022-10-28T13:08:36.666Z,999.90
2022-10-28T13:11:02.932Z,999.90
2022-10-28T13:13:29.243Z,999.90
2022-10-28T13:15:56.010Z,999.90
2022-10-28T13:18:22.388Z,999.90
2022-10-28T13:20:48.655Z,999.90
2022-10-28T13:23:14.930Z,999.90
2022-10-28T13:25:41.195Z,999.90
2022-10-28T13:28:08.554Z,999.90
2022-10-28T13:30:35.272Z,999.90
2022-10-28T13:33:01.547Z,999.90
2022-10-28T13:35:27.846Z,999.90
2022-10-28T13:37:54.495Z,999.90
2022-10-28T13:40:21.218Z,999.90
2022-10-28T13:42:47.555Z,999.90
2022-10-28T13:45:18.001Z,999.90
2022-10-28T13:47:44.270Z,999.90
2022-10-28T13:50:11.820Z,999.90
2022-10-28T13:52:38.121Z,999.90
2022-10-28T13:55:04.389Z,999.90
2022-10-28T13:57:31.117Z,999.90
2022-10-28T13:59:57.473Z,999.90
2022-10-28T14:02:39.425Z,999.90
2022-10-28T14:05:06.163Z,999.90
2022-10-28T14:07:32.454Z,999.90
2022-10-28T14:09:58.722Z,999.90
2022-10-28T14:12:25.030Z,999.90
2022-10-28T14:14:51.281Z,999.90
2022-10-28T14:17:17.547Z,999.90
2022-10-28T14:19:43.810Z,999.90
2022-10-28T14:22:10.214Z,999.90
2022-10-28T14:24:36.533Z,999.90
2022-10-28T14:27:02.844Z,999.90
2022-10-28T14:29:29.863Z,999.90
2022-10-28T14:31:56.049Z,999.90
2022-10-28T14:34:22.301Z,999.90
2022-10-28T14:36:48.893Z,999.90
2022-10-28T14:39:15.145Z,999.90
2022-10-28T14:41:41.506Z,999.90
2022-10-28T14:44:11.970Z,999.90
2022-10-28T14:46:38.230Z,999.90
2022-10-28T14:49:04.527Z,999.90
2022-10-28T14:51:30.803Z,999.90
2022-10-28T14:53:57.588Z,999.90
2022-10-28T14:58:55.064Z,999.90
2022-10-28T15:01:21.493Z,999.90
2022-10-28T15:03:47.862Z,999.90
2022-10-28T15:06:14.127Z,999.90
2022-10-28T15:08:40.404Z,999.90
2022-10-28T15:11:06.662Z,999.90
2022-10-28T15:13:32.936Z,999.90
2022-10-28T15:16:02.189Z,999.90
2022-10-28T15:18:31.041Z,999.90
2022-10-28T15:20:57.289Z,999.90
2022-10-28T15:23:23.642Z,999.90
2022-10-28T15:25:50.018Z,999.90
2022-10-28T15:28:16.277Z,999.90
2022-10-28T15:30:46.299Z,999.90
2022-10-28T15:33:13.201Z,999.90
2022-10-28T15:35:39.523Z,999.90
2022-10-28T15:38:05.805Z,999.90
2022-10-28T15:40:32.065Z,999.90
2022-10-28T15:42:58.425Z,999.90
2022-10-28T15:45:24.755Z,999.90
2022-10-28T15:47:51.022Z,999.90
2022-10-28T15:50:17.308Z,999.90
2022-10-28T15:52:43.584Z,999.90
2022-10-28T15:55:09.837Z,999.90
2022-10-28T15:57:36.109Z,999.90
2022-10-28T16:00:02.452Z,999.90
2022-10-28T16:02:28.928Z,999.90
2022-10-28T16:04:55.501Z,999.90
2022-10-28T16:07:21.766Z,999.90
2022-10-28T16:09:48.045Z,999.90
2022-10-28T16:12:14.299Z,999.90
2022-10-28T16:14:40.637Z,999.90
2022-10-28T16:17:07.023Z,999.90
2022-10-28T16:19:33.443Z,999.90
2022-10-28T16:21:59.711Z,999.90
2022-10-28T16:24:25.972Z,999.90
2022-10-28T16:26:52.239Z,999.90
2022-10-28T16:29:18.492Z,999.90
2022-10-28T16:31:44.745Z,999.90
2022-10-28T16:34:11.335Z,999.90
2022-10-28T16:36:37.585Z,999.90
2022-10-28T16:39:03.993Z,999.90
2022-10-28T16:41:30.258Z,999.90
2022-10-28T16:43:56.648Z,999.90
2022-10-28T16:46:22.956Z,999.90
2022-10-28T16:48:49.347Z,999.90
2022-10-28T16:51:16.406Z,999.90
2022-10-28T16:53:46.888Z,999.90
2022-10-28T16:56:14.904Z,999.90
2022-10-28T16:58:42.476Z,999.90
2022-10-28T17:01:09.175Z,999.90
2022-10-28T17:03:35.621Z,999.90
2022-10-28T17:06:01.894Z,999.90
2022-10-28T17:08:56.585Z,999.90
2022-10-28T17:11:14.415Z,999.90
2022-10-28T17:13:40.670Z,999.90
2022-10-28T17:16:07.086Z,999.90
2022-10-28T17:18:33.368Z,999.90
2022-10-28T17:21:00.597Z,999.90
2022-10-28T17:23:26.900Z,999.90
2022-10-28T17:25:53.165Z,999.90
2022-10-28T17:28:19.440Z,999.90
2022-10-28T17:30:45.698Z,999.90
2022-10-28T17:33:11.953Z,999.90
2022-10-28T17:35:38.215Z,999.90
2022-10-28T17:38:04.470Z,999.90
2022-10-28T17:40:32.018Z,999.90
2022-10-28T17:42:58.294Z,999.90
2022-10-28T17:45:24.551Z,999.90
2022-10-28T17:47:50.812Z,999.90
2022-10-28T17:50:17.151Z,999.90
2022-10-28T17:52:43.423Z,999.90
2022-10-28T17:55:09.753Z,999.90
2022-10-28T17:57:36.021Z,999.90
2022-10-28T18:00:02.298Z,999.90
2022-10-28T18:02:28.856Z,999.90
2022-10-28T18:04:55.173Z,999.90
2022-10-28T18:07:21.465Z,999.90
2022-10-28T18:09:47.718Z,999.90
2022-10-28T18:12:14.016Z,999.90
2022-10-28T18:14:40.282Z,999.90
2022-10-28T18:17:06.590Z,999.90
2022-10-28T18:19:32.950Z,999.90
2022-10-28T18:21:59.207Z,999.90
2022-10-28T18:24:26.142Z,999.90
2022-10-28T18:26:52.715Z,999.90
2022-10-28T18:29:18.977Z,999.90
2022-10-28T18:31:45.272Z,999.90
2022-10-28T18:34:13.808Z,999.90
2022-10-28T18:36:40.087Z,999.90
2022-10-28T18:39:07.101Z,999.90
2022-10-28T18:41:34.378Z,999.90
2022-10-28T18:44:00.684Z,999.90
2022-10-28T18:46:26.964Z,999.90
2022-10-28T18:48:56.692Z,999.90
2022-10-28T18:51:23.108Z,999.90
2022-10-28T18:53:49.368Z,999.90
2022-10-28T18:56:15.631Z,999.90
2022-10-28T18:58:41.913Z,999.90
2022-10-28T19:01:08.258Z,999.90
2022-10-28T19:03:34.642Z,999.90
2022-10-28T19:06:00.897Z,999.90
2022-10-28T19:08:27.156Z,999.90
2022-10-28T19:10:53.446Z,999.90
2022-10-28T19:13:19.700Z,999.90
2022-10-28T19:15:46.121Z,999.90
2022-10-28T19:18:14.219Z,999.90
2022-10-28T19:20:43.181Z,999.90
2022-10-28T19:23:09.487Z,999.90
2022-10-28T19:25:35.791Z,999.90
2022-10-28T19:28:02.062Z,999.90
2022-10-28T19:30:28.338Z,999.90
2022-10-28T19:32:54.942Z,999.90
2022-10-28T19:35:21.427Z,999.90
2022-10-28T19:37:47.694Z,999.90
2022-10-28T19:40:13.952Z,999.90
2022-10-28T19:42:40.354Z,999.90
2022-10-28T19:45:06.640Z,999.90
2022-10-28T19:47:33.062Z,999.90
2022-10-28T19:49:59.319Z,999.90
2022-10-28T19:52:25.581Z,999.90
2022-10-28T19:54:51.838Z,999.90
2022-10-28T19:57:18.104Z,999.90
2022-10-28T19:59:44.459Z,999.90
2022-10-28T20:02:11.113Z,999.90
2022-10-28T20:04:37.514Z,999.90
2022-10-28T20:07:03.787Z,999.90
2022-10-28T20:09:30.054Z,999.90
2022-10-28T20:11:56.322Z,999.90
2022-10-28T20:14:22.654Z,999.90
2022-10-28T20:16:49.188Z,999.90
2022-10-28T20:19:15.452Z,999.90
2022-10-28T20:21:41.827Z,999.90
2022-10-28T20:24:08.104Z,999.90
2022-10-28T20:26:34.410Z,999.90
2022-10-28T20:29:03.828Z,999.90
2022-10-28T20:34:20.794Z,999.90
2022-10-28T20:36:48.345Z,999.90
2022-10-28T20:39:15.178Z,999.90
2022-10-28T20:41:41.463Z,999.90
2022-10-28T20:44:07.726Z,999.90
2022-10-28T20:46:33.991Z,999.90
2022-10-28T20:49:00.899Z,999.90
2022-10-28T20:51:27.225Z,999.90
2022-10-28T20:53:53.500Z,999.90
2022-10-28T20:56:19.937Z,999.90
2022-10-28T20:58:46.204Z,999.90
2022-10-28T21:01:12.533Z,999.90
2022-10-28T21:03:40.902Z,999.90
2022-10-28T21:06:07.213Z,999.90
2022-10-28T21:08:33.539Z,999.90
2022-10-28T21:10:59.804Z,999.90
2022-10-28T21:13:26.066Z,999.90
2022-10-28T21:15:56.506Z,999.90
2022-10-28T21:18:24.053Z,999.90
2022-10-28T21:20:50.370Z,999.90
2022-10-28T21:23:16.659Z,999.90
2022-10-28T21:25:42.922Z,999.90
2022-10-28T21:28:09.186Z,999.90
2022-10-28T21:30:35.456Z,999.90
2022-10-28T21:33:01.725Z,999.90
2022-10-28T21:35:27.992Z,999.90
2022-10-28T21:37:54.544Z,999.90
2022-10-28T21:40:20.952Z,999.90
2022-10-28T21:42:47.220Z,999.90
2022-10-28T21:45:14.096Z,999.90
2022-10-28T21:50:07.605Z,999.90
2022-10-28T21:52:33.881Z,999.90
2022-10-28T21:55:05.894Z,999.90
2022-10-28T21:57:41.247Z,999.90
2022-10-28T22:00:07.555Z,999.90
2022-10-28T22:02:33.963Z,999.90
2022-10-28T22:05:00.316Z,999.90
2022-10-28T22:07:26.577Z,999.90
2022-10-28T22:09:52.840Z,999.90
2022-10-28T22:12:19.118Z,999.90
2022-10-28T22:14:45.515Z,999.90
2022-10-28T22:17:11.773Z,999.90
2022-10-28T22:19:38.058Z,999.90
2022-10-28T22:22:04.321Z,999.90
2022-10-28T22:24:30.582Z,999.90
2022-10-28T22:26:56.859Z,999.90
2022-10-28T22:29:23.125Z,999.90
2022-10-28T22:31:49.456Z,999.90
2022-10-28T22:34:15.710Z,999.90
2022-10-28T22:36:43.577Z,999.90
2022-10-28T22:39:09.842Z,999.90
2022-10-28T22:41:36.153Z,999.90
2022-10-28T22:44:02.441Z,999.90
2022-10-28T22:46:28.709Z,999.90
2022-10-28T22:48:54.969Z,999.90
2022-10-28T22:51:21.223Z,999.90
2022-10-28T22:53:47.480Z,999.90
2022-10-28T22:56:13.733Z,999.90
2022-10-28T22:58:40.086Z,999.90
2022-10-28T23:01:06.386Z,999.90
2022-10-28T23:03:32.664Z,999.90
2022-10-28T23:05:58.939Z,999.90
2022-10-28T23:08:25.200Z,999.90
2022-10-28T23:10:51.458Z,999.90
2022-10-28T23:13:17.715Z,999.90
2022-10-28T23:15:44.131Z,999.90
2022-10-28T23:18:10.380Z,999.90
2022-10-28T23:20:37.119Z,999.90
2022-10-28T23:23:03.375Z,999.90
2022-10-28T23:25:29.808Z,999.90
2022-10-28T23:27:56.242Z,999.90
2022-10-28T23:30:22.681Z,999.90
2022-10-28T23:32:50.809Z,999.90
2022-10-28T23:35:17.061Z,999.90
2022-10-28T23:37:43.380Z,999.90
2022-10-28T23:42:41.608Z,999.90
2022-10-28T23:45:09.400Z,999.90
2022-10-28T23:47:35.664Z,999.90
2022-10-28T23:50:02.022Z,999.90
2022-10-28T23:52:28.564Z,999.90
2022-10-28T23:54:54.859Z,999.90
2022-10-28T23:57:21.154Z,999.90
2022-10-28T23:59:47.404Z,999.90
